Cape Texel — V7RC4 — position and weather

sailwx.info

Track history (hours):
 
Tides and Currents Weather Stations Pressure Air Temp Water Temp Dewpoint Dewpoint Depression Visibility Wind Speed Wind Dir Waves Ship Positions

Cape Texel

Last reported at 2016-May-19 13:33 UTC. Time now 2016-May-27 10:20 UTC.
Position N 16°24' W 062°32'.

Length 228 m; draft 13.7 m.

Type: Ship (hazmat cat A). MMSI: 538090383.

Date/timePositionNaut miles runAvg speedWind from/ knotsBaromVisibWave heightAir tempDewpointWater temp
2016-May-19 13:33N 16°24' W 062°32'79 4.6
2016-May-18 20:21N 17°36' W 063°07'1211.4
2016-May-18 19:20N 17°46' W 063°12'1011.4
2016-May-18 18:26N 17°55' W 063°18'1111.6
2016-May-18 17:30N 18°04' W 063°23'  
2016-May-12 00:33N 28°38' W 093°33'9 9.5
2016-May-11 23:34N 28°44' W 093°42'1111.2
2016-May-11 22:33N 28°49' W 093°53'1311.2
2016-May-11 21:22N 28°52' W 094°08'17 9.6
2016-May-11 19:33N 29°00' W 094°25'9 8.3
2016-May-11 18:30N 29°08' W 094°20'35 8.4
2016-May-11 14:21N 29°29' W 094°52'7 9.1
2016-May-11 13:33N 29°35' W 094°56'8 8.2
2016-May-11 12:32N 29°43' W 095°01'2 0.1
2016-May-09 23:31N 29°44' W 095°03'1 1.1
2016-May-09 22:33N 29°44' W 095°02'7 7.3
2016-May-09 21:34N 29°38' W 094°58'1211.4
2016-May-09 20:33N 29°28' W 094°51'27 7.8
2016-May-09 17:04N 29°06' W 094°31'  
Track history (hours):
 
Tides and Currents Weather Stations Pressure Air Temp Water Temp Dewpoint Dewpoint Depression Visibility Wind Speed Wind Dir Waves Ship Positions

Cape Texel

Last reported at 2016-May-19 13:33 UTC. Time now 2016-May-27 10:20 UTC.
Position N 16°24' W 062°32'.

Length 228 m; draft 13.7 m.

Type: Ship (hazmat cat A). MMSI: 538090383.

Date/timePositionNaut miles runAvg speedWind from/ knotsBaromVisibWave heightAir tempDewpointWater temp
2016-May-19 13:33N 16°24' W 062°32'79 4.6
2016-May-18 20:21N 17°36' W 063°07'1211.4
2016-May-18 19:20N 17°46' W 063°12'1011.4
2016-May-18 18:26N 17°55' W 063°18'1111.6
2016-May-18 17:30N 18°04' W 063°23'  
2016-May-12 00:33N 28°38' W 093°33'9 9.5
2016-May-11 23:34N 28°44' W 093°42'1111.2
2016-May-11 22:33N 28°49' W 093°53'1311.2
2016-May-11 21:22N 28°52' W 094°08'17 9.6
2016-May-11 19:33N 29°00' W 094°25'9 8.3
2016-May-11 18:30N 29°08' W 094°20'35 8.4
2016-May-11 14:21N 29°29' W 094°52'7 9.1
2016-May-11 13:33N 29°35' W 094°56'8 8.2
2016-May-11 12:32N 29°43' W 095°01'2 0.1
2016-May-09 23:31N 29°44' W 095°03'1 1.1
2016-May-09 22:33N 29°44' W 095°02'7 7.3
2016-May-09 21:34N 29°38' W 094°58'1211.4
2016-May-09 20:33N 29°28' W 094°51'27 7.8
2016-May-09 17:04N 29°06' W 094°31'  

Dump ship's entire track history